Time;durP1;ratioP1;P1;durP2;ratioP2;P2;SDS_P1;SDS_P2;PMS_P1;PMS_P2;Temp;Humidity;BMP_temperature;BMP_pressure;BME280_temperature;BME280_humidity;BME280_pressure;Samples;Min_cycle;Max_cycle;Signal;HPM_P1;HPM_P2
2022/01/08 00:01:11;;;;;;;7.75;2.65;;;;;;;5.12;82.13;100944.47;7396464;19;20412;-67
2022/01/08 00:03:40;;;;;;;7.10;2.45;;;;;;;5.12;82.51;100939.25;7390650;19;20021;-67
2022/01/08 00:06:08;;;;;;;81.82;9.32;;;;;;;5.10;82.93;100936.75;7391178;19;20014;-67
2022/01/08 00:08:35;;;;;;;9.35;3.38;;;;;;;5.11;83.98;100933.19;7389874;19;20007;-66
2022/01/08 00:11:06;;;;;;;7.43;2.30;;;;;;;5.08;83.34;100928.19;7394137;19;20007;-66
2022/01/08 00:13:34;;;;;;;30.08;6.78;;;;;;;5.08;83.29;100946.44;7391559;19;20031;-66
2022/01/08 00:16:02;;;;;;;5.47;2.60;;;;;;;5.07;83.64;100947.41;7393944;19;20022;-66
2022/01/08 00:18:29;;;;;;;6.80;2.72;;;;;;;5.08;83.26;100943.00;7390040;19;20010;-67
2022/01/08 00:20:57;;;;;;;10.40;4.22;;;;;;;5.08;83.36;100949.06;7392337;19;20399;-66
2022/01/08 00:23:24;;;;;;;6.75;2.53;;;;;;;5.09;83.30;100939.47;7390947;19;20046;-65
2022/01/08 00:25:52;;;;;;;12.23;2.78;;;;;;;5.08;82.08;100936.00;7390779;19;20014;-65
2022/01/08 00:28:19;;;;;;;8.45;3.40;;;;;;;5.11;83.71;100932.34;7390360;19;20017;-67
2022/01/08 00:30:48;;;;;;;6.65;2.78;;;;;;;5.12;83.35;100919.22;7394410;19;20007;-67
2022/01/08 00:33:15;;;;;;;14.05;4.85;;;;;;;5.12;83.08;100921.00;7390754;19;20014;-67
2022/01/08 00:35:43;;;;;;;6.95;2.85;;;;;;;5.12;82.50;100926.22;7390002;19;20010;-67
2022/01/08 00:38:10;;;;;;;10.77;2.85;;;;;;;5.08;82.17;100917.75;7391569;19;20848;-66
2022/01/08 00:40:38;;;;;;;16.70;6.85;;;;;;;5.05;82.34;100923.22;7389680;19;20110;-68
2022/01/08 00:43:05;;;;;;;6.68;2.78;;;;;;;5.06;82.50;100927.50;7394776;19;20019;-66
2022/01/08 00:45:33;;;;;;;9.15;3.55;;;;;;;5.04;82.73;100924.16;7393124;19;20432;-67
2022/01/08 00:48:00;;;;;;;9.15;3.42;;;;;;;5.04;83.66;100925.94;7387937;19;20050;-67
2022/01/08 00:50:28;;;;;;;10.32;2.85;;;;;;;5.00;83.33;100927.13;7394174;19;20018;-66
2022/01/08 00:52:55;;;;;;;14.25;5.32;;;;;;;5.01;83.71;100929.63;7388950;19;20017;-66
2022/01/08 00:55:23;;;;;;;11.15;3.67;;;;;;;5.06;84.13;100931.88;7390251;19;20010;-66
2022/01/08 00:57:50;;;;;;;8.05;3.33;;;;;;;5.04;83.34;100928.53;7390223;19;20015;-67
2022/01/08 01:00:17;;;;;;;12.80;5.80;;;;;;;5.05;83.67;100927.59;7391453;19;20034;-67
2022/01/08 01:02:45;;;;;;;11.23;3.35;;;;;;;5.06;83.58;100924.88;7387389;19;20018;-68
2022/01/08 01:05:12;;;;;;;11.55;3.50;;;;;;;5.07;83.01;100916.13;7394610;19;20354;-67
2022/01/08 01:07:40;;;;;;;8.15;3.40;;;;;;;5.08;83.44;100909.09;7388155;19;20026;-66
2022/01/08 01:10:09;;;;;;;9.13;3.40;;;;;;;5.06;83.05;100900.59;7393424;19;20345;-65
2022/01/08 01:12:39;;;;;;;9.80;4.13;;;;;;;5.06;83.15;100900.59;7388738;19;20023;-66
2022/01/08 01:15:12;;;;;;;7.30;3.47;;;;;;;5.06;83.83;100898.81;7392678;19;20567;-66
2022/01/08 01:17:41;;;;;;;8.05;3.30;;;;;;;5.05;83.12;100889.31;7388245;19;20011;-65
2022/01/08 01:20:11;;;;;;;10.25;4.07;;;;;;;5.08;84.34;100883.03;7391331;19;20469;-67
2022/01/08 01:22:50;;;;;;;7.32;3.63;;;;;;;5.09;83.77;100882.94;7388869;19;20009;-66
2022/01/08 01:25:23;;;;;;;14.05;4.68;;;;;;;5.10;83.32;100882.00;7387846;19;20015;-66
2022/01/08 01:30:37;;;;;;;8.75;3.58;;;;;;;5.11;83.67;100873.22;7391568;19;19915;-67
2022/01/08 01:48:13;;;;;;;10.05;3.45;;;;;;;5.13;83.82;100879.13;7386193;19;20168;-66
2022/01/08 01:50:43;;;;;;;8.55;3.10;;;;;;;5.10;83.86;100874.16;7393608;19;20002;-71
2022/01/08 01:53:15;;;;;;;11.35;5.03;;;;;;;5.14;85.39;100861.72;7386539;19;20046;-66
2022/01/08 01:55:45;;;;;;;8.95;3.47;;;;;;;5.20;84.98;100852.59;7389563;19;20015;-67
2022/01/08 01:58:13;;;;;;;16.77;5.32;;;;;;;5.21;84.41;100851.66;7385908;19;20407;-66
2022/01/08 02:00:43;;;;;;;8.13;3.47;;;;;;;5.27;85.27;100854.63;7386203;19;20014;-65
2022/01/08 02:03:10;;;;;;;10.50;3.50;;;;;;;5.32;84.87;100849.06;7388566;19;20011;-64
2022/01/08 02:05:38;;;;;;;10.45;4.60;;;;;;;5.32;84.75;100852.50;7392517;19;20014;-64
2022/01/08 02:08:05;;;;;;;8.13;3.22;;;;;;;5.37;85.13;100854.75;7387801;19;20334;-64
2022/01/08 02:10:33;;;;;;;5.95;2.47;;;;;;;5.40;84.80;100852.72;7386469;19;20006;-67
2022/01/08 02:13:00;;;;;;;9.55;3.72;;;;;;;5.44;85.08;100861.13;7386125;19;20011;-66
2022/01/08 02:15:28;;;;;;;7.53;2.75;;;;;;;5.46;84.71;100862.69;7385596;19;20019;-68
2022/01/08 02:17:55;;;;;;;8.82;3.78;;;;;;;5.48;83.96;100860.78;7388243;19;20035;-66
2022/01/08 02:20:23;;;;;;;7.65;3.10;;;;;;;5.51;84.32;100850.09;7388524;19;20456;-68
2022/01/08 02:22:50;;;;;;;15.07;2.90;;;;;;;5.48;83.88;100839.94;7390405;19;20014;-66
2022/01/08 02:25:22;;;;;;;17.08;4.97;;;;;;;5.49;83.86;100835.50;7390402;19;20541;-65
2022/01/08 02:27:50;;;;;;;9.20;2.72;;;;;;;5.47;83.75;100827.81;7387194;19;20444;-66
2022/01/08 02:30:19;;;;;;;6.15;2.30;;;;;;;5.50;83.49;100827.56;7388275;19;20010;-66
2022/01/08 02:32:46;;;;;;;5.22;2.33;;;;;;;5.53;83.69;100824.75;7389938;19;20333;-67
2022/01/08 02:35:16;;;;;;;6.22;2.65;;;;;;;5.55;83.76;100828.03;7397674;19;20177;-66
2022/01/08 02:37:43;;;;;;;10.00;2.67;;;;;;;5.55;83.72;100820.22;7395662;19;20010;-67
2022/01/08 02:40:11;;;;;;;6.13;2.63;;;;;;;5.60;84.45;100806.81;7394599;19;20015;-68
2022/01/08 02:42:49;;;;;;;10.60;2.30;;;;;;;5.65;84.12;100794.22;7395445;19;20483;-66
2022/01/08 02:45:17;;;;;;;6.72;2.17;;;;;;;5.65;83.56;100796.00;7393133;19;20037;-67
2022/01/08 02:47:45;;;;;;;7.47;2.38;;;;;;;5.64;83.31;100799.56;7395732;19;20006;-66
2022/01/08 02:50:13;;;;;;;9.23;2.42;;;;;;;5.66;83.32;100795.88;7396293;19;20022;-66
2022/01/08 02:52:42;;;;;;;7.35;2.75;;;;;;;5.68;83.52;100793.16;7392570;19;20017;-66
2022/01/08 02:55:11;;;;;;;7.60;2.13;;;;;;;5.69;84.19;100793.00;7395069;19;20015;-66
2022/01/08 02:57:38;;;;;;;6.15;2.00;;;;;;;5.68;83.18;100798.38;7395379;19;20007;-67
2022/01/08 03:00:09;;;;;;;6.03;2.30;;;;;;;5.67;83.41;100789.72;7394188;19;20066;-66
2022/01/08 03:02:43;;;;;;;7.38;2.05;;;;;;;5.69;83.60;100787.00;7392330;19;20010;-67
2022/01/08 03:05:12;;;;;;;40.47;4.03;;;;;;;5.71;83.45;100777.25;7395776;19;20019;-67
2022/01/08 03:07:42;;;;;;;5.53;2.22;;;;;;;5.71;84.43;100772.03;7392628;19;20018;-66
2022/01/08 03:10:12;;;;;;;4.82;2.20;;;;;;;5.70;83.97;100767.75;7393239;19;20007;-66
2022/01/08 03:12:41;;;;;;;6.25;2.00;;;;;;;5.69;83.93;100779.16;7397443;19;20686;-67
2022/01/08 03:15:15;;;;;;;8.07;2.42;;;;;;;5.69;83.94;100771.34;7395443;19;20725;-66
2022/01/08 03:17:46;;;;;;;6.35;1.90;;;;;;;5.71;83.88;100772.84;7395019;19;20014;-66
2022/01/08 03:20:15;;;;;;;14.15;4.50;;;;;;;5.76;85.31;100762.03;7394742;19;20039;-66
2022/01/08 03:22:45;;;;;;;9.00;2.08;;;;;;;5.79;85.86;100748.75;7391488;19;20038;-64
2022/01/08 03:25:14;;;;;;;39.08;5.45;;;;;;;5.77;84.75;100742.81;7393131;19;20500;-64
2022/01/08 03:27:41;;;;;;;6.07;2.50;;;;;;;5.77;84.92;100730.59;7392024;19;20521;-67
2022/01/08 03:30:12;;;;;;;6.00;2.05;;;;;;;5.79;84.17;100730.50;7394403;19;20003;-66
2022/01/08 03:32:40;;;;;;;9.10;3.08;;;;;;;5.78;84.02;100721.00;7395550;19;20010;-66
2022/01/08 03:35:08;;;;;;;4.63;1.30;;;;;;;5.80;84.36;100719.91;7390509;19;20032;-64
2022/01/08 03:37:36;;;;;;;6.20;1.52;;;;;;;5.77;84.06;100725.38;7394213;19;20381;-67
2022/01/08 03:40:05;;;;;;;6.90;1.98;;;;;;;5.77;83.78;100729.78;7391050;19;20038;-67
2022/01/08 03:42:33;;;;;;;6.15;1.92;;;;;;;5.79;84.45;100733.09;7393744;19;20010;-67
2022/01/08 03:45:00;;;;;;;4.88;1.63;;;;;;;5.78;84.36;100729.66;7388124;19;20014;-66
2022/01/08 03:49:57;;;;;;;7.88;1.60;;;;;;;5.80;84.30;100722.50;7393811;19;20046;-66
2022/01/08 03:52:26;;;;;;;5.85;1.90;;;;;;;5.83;84.06;100714.44;7391102;19;20011;-66
2022/01/08 03:54:53;;;;;;;5.88;1.88;;;;;;;5.80;84.10;100704.25;7394234;19;20032;-65
2022/01/08 03:57:21;;;;;;;4.75;1.30;;;;;;;5.82;84.59;100697.13;7392629;19;20034;-65
2022/01/08 03:59:49;;;;;;;6.25;1.83;;;;;;;5.87;84.50;100702.00;7392207;19;20486;-66
2022/01/08 04:02:16;;;;;;;6.07;1.67;;;;;;;5.85;84.79;100696.84;7390478;19;20007;-65
2022/01/08 04:04:44;;;;;;;4.47;1.27;;;;;;;5.85;84.24;100699.47;7393632;19;20026;-65
2022/01/08 04:07:11;;;;;;;9.32;3.08;;;;;;;5.87;85.06;100684.56;7392124;19;20010;-66
2022/01/08 04:09:39;;;;;;;8.93;1.80;;;;;;;5.86;85.02;100674.19;7388693;19;20010;-65
2022/01/08 04:12:07;;;;;;;27.33;6.38;;;;;;;5.89;84.49;100674.00;7390479;19;20022;-67
2022/01/08 04:14:50;;;;;;;4.57;2.08;;;;;;;5.99;87.32;100670.47;7390514;19;20029;-65
2022/01/08 04:17:18;;;;;;;6.68;1.35;;;;;;;6.03;86.83;100663.22;7389983;19;20019;-68
2022/01/08 04:19:45;;;;;;;9.50;2.80;;;;;;;6.03;85.70;100646.72;7394325;19;20780;-65
2022/01/08 04:22:13;;;;;;;4.20;1.25;;;;;;;6.07;85.80;100637.69;7389956;19;20010;-66
2022/01/08 04:24:42;;;;;;;8.02;1.45;;;;;;;6.09;84.98;100622.72;7392709;19;20035;-66
2022/01/08 04:27:11;;;;;;;7.05;1.30;;;;;;;6.13;85.07;100614.50;7392871;19;20592;-65
2022/01/08 04:29:38;;;;;;;4.13;1.23;;;;;;;6.14;84.69;100610.09;7390553;19;20037;-65
2022/01/08 04:32:06;;;;;;;9.27;1.63;;;;;;;6.15;84.93;100616.94;7389468;19;20014;-65
2022/01/08 04:34:33;;;;;;;5.13;1.08;;;;;;;6.14;84.88;100625.78;7388778;19;20030;-64
2022/01/08 04:37:01;;;;;;;5.75;0.98;;;;;;;6.16;84.74;100629.88;7388471;19;20483;-65
2022/01/08 04:39:28;;;;;;;16.02;5.68;;;;;;;6.22;85.17;100611.09;7390605;19;20014;-68
2022/01/08 04:41:55;;;;;;;6.65;1.13;;;;;;;6.31;86.12;100599.84;7392573;19;20038;-66
2022/01/08 04:44:23;;;;;;;5.13;1.10;;;;;;;6.31;85.06;100586.78;7390994;19;20048;-66
2022/01/08 04:46:50;;;;;;;6.20;1.58;;;;;;;6.33;85.25;100579.66;7392155;19;20019;-67
2022/01/08 04:49:18;;;;;;;8.15;1.20;;;;;;;6.35;84.79;100576.91;7389912;19;20020;-66
2022/01/08 04:51:45;;;;;;;5.20;1.10;;;;;;;6.38;84.52;100569.66;7390628;19;20011;-66
2022/01/08 04:54:13;;;;;;;3.60;0.80;;;;;;;6.37;84.20;100569.75;7392906;19;20050;-65
2022/01/08 04:56:40;;;;;;;5.95;0.70;;;;;;;6.39;84.21;100573.91;7393514;19;20003;-65
2022/01/08 04:59:08;;;;;;;5.32;1.20;;;;;;;6.39;84.09;100566.06;7390680;19;20014;-66
2022/01/08 05:01:35;;;;;;;2.95;0.60;;;;;;;6.41;83.93;100560.69;7391988;19;20014;-71
2022/01/08 05:04:03;;;;;;;4.70;0.90;;;;;;;6.42;83.34;100554.53;7392508;19;20010;-66
2022/01/08 05:06:31;;;;;;;5.35;1.63;;;;;;;6.45;83.62;100557.69;7388496;19;20019;-65
2022/01/08 05:08:58;;;;;;;6.45;0.90;;;;;;;6.48;83.62;100545.31;7393082;19;20337;-65
2022/01/08 05:11:27;;;;;;;3.72;0.80;;;;;;;6.53;83.42;100524.84;7389125;19;20015;-65
2022/01/08 05:13:55;;;;;;;7.70;0.70;;;;;;;6.58;83.58;100510.41;7390056;19;20018;-68
2022/01/08 05:16:23;;;;;;;7.00;0.60;;;;;;;6.65;83.54;100518.56;7387630;19;20047;-67
2022/01/08 05:18:54;;;;;;;2.53;0.43;;;;;;;6.65;83.25;100511.53;7391122;19;20038;-65
2022/01/08 05:21:28;;;;;;;3.35;0.50;;;;;;;6.67;83.29;100503.53;7387323;19;20034;-65
2022/01/08 05:23:58;;;;;;;3.05;0.50;;;;;;;6.70;83.54;100503.28;7390735;19;20019;-66
2022/01/08 05:26:26;;;;;;;7.13;0.88;;;;;;;6.71;83.66;100487.44;7391632;19;20026;-65
2022/01/08 05:28:55;;;;;;;3.45;0.50;;;;;;;6.74;83.53;100488.97;7390332;19;20007;-67
2022/01/08 05:31:23;;;;;;;55.13;6.70;;;;;;;6.77;83.15;100484.28;7387872;19;20026;-67
2022/01/08 05:33:51;;;;;;;6.07;0.90;;;;;;;6.82;84.92;100470.81;7386937;19;20010;-67
2022/01/08 05:36:19;;;;;;;5.93;0.88;;;;;;;6.85;84.47;100468.75;7388039;19;20816;-66
2022/01/08 05:38:46;;;;;;;5.60;0.85;;;;;;;6.85;84.59;100466.16;7387604;19;20014;-64
2022/01/08 05:41:13;;;;;;;4.72;0.50;;;;;;;6.87;85.01;100450.28;7390379;19;20046;-66
2022/01/08 05:43:41;;;;;;;5.22;0.40;;;;;;;6.87;84.80;100458.13;7389686;19;20020;-65
2022/01/08 05:46:09;;;;;;;1.88;0.40;;;;;;;6.92;84.96;100452.50;7391128;19;20078;-67
2022/01/08 05:48:37;;;;;;;4.03;0.50;;;;;;;6.98;85.30;100444.94;7388344;19;20018;-67
2022/01/08 05:51:05;;;;;;;5.78;1.08;;;;;;;6.99;85.38;100446.59;7387571;19;20516;-67
2022/01/08 05:53:32;;;;;;;2.80;0.60;;;;;;;7.04;86.02;100454.00;7388262;19;20014;-67
2022/01/08 05:55:59;;;;;;;6.57;0.47;;;;;;;7.08;85.81;100443.13;7386236;19;20014;-67
2022/01/08 05:58:27;;;;;;;11.02;2.10;;;;;;;7.15;86.07;100449.47;7393287;19;20054;-68
2022/01/08 06:00:54;;;;;;;3.47;0.50;;;;;;;7.20;86.57;100447.25;7389020;19;20030;-65
2022/01/08 06:03:22;;;;;;;3.45;0.40;;;;;;;7.20;86.32;100444.63;7391574;19;20061;-66
2022/01/08 06:05:51;;;;;;;6.93;0.73;;;;;;;7.20;86.23;100434.16;7387335;19;20006;-68
2022/01/08 06:08:18;;;;;;;4.50;0.60;;;;;;;7.23;86.56;100430.44;7387902;19;20009;-68
2022/01/08 06:10:46;;;;;;;2.92;0.40;;;;;;;7.22;86.48;100426.97;7385120;19;20491;-67
2022/01/08 06:13:13;;;;;;;9.70;1.73;;;;;;;7.28;87.07;100422.97;7387123;19;20030;-67
2022/01/08 06:15:40;;;;;;;3.83;0.95;;;;;;;7.33;87.43;100412.91;7389998;19;20019;-68
2022/01/08 06:18:08;;;;;;;7.30;0.73;;;;;;;7.37;87.12;100395.13;7386823;19;20011;-66
2022/01/08 06:20:35;;;;;;;4.78;0.70;;;;;;;7.39;87.66;100396.66;7387002;19;20011;-66
2022/01/08 06:23:03;;;;;;;5.35;1.02;;;;;;;7.41;87.64;100381.63;7386323;19;20007;-66
2022/01/08 06:25:31;;;;;;;9.52;0.85;;;;;;;7.45;87.76;100385.63;7391361;19;20034;-65
2022/01/08 06:27:58;;;;;;;5.88;0.63;;;;;;;7.47;88.34;100367.13;7386769;19;20010;-66
2022/01/08 06:30:26;;;;;;;6.22;0.40;;;;;;;7.50;88.27;100362.44;7387915;19;20011;-67
2022/01/08 06:32:53;;;;;;;9.38;2.60;;;;;;;7.52;88.71;100363.09;7389606;19;20013;-67
2022/01/08 06:35:20;;;;;;;2.38;0.73;;;;;;;7.56;89.17;100347.97;7385936;19;20022;-65
2022/01/08 06:37:47;;;;;;;4.53;0.55;;;;;;;7.58;89.63;100349.44;7389970;19;20440;-66
2022/01/08 06:40:14;;;;;;;57.28;7.60;;;;;;;7.60;89.85;100334.44;7390394;19;20010;-65
2022/01/08 06:42:41;;;;;;;4.15;0.63;;;;;;;7.61;90.15;100320.38;7390986;19;20511;-68
2022/01/08 06:45:09;;;;;;;6.60;0.60;;;;;;;7.64;90.04;100320.06;7387994;19;20015;-65
2022/01/08 06:47:37;;;;;;;7.10;1.42;;;;;;;7.63;90.48;100314.97;7385790;19;20015;-66
2022/01/08 06:50:04;;;;;;;6.13;0.98;;;;;;;7.64;90.39;100304.38;7391117;19;20018;-66
2022/01/08 06:52:33;;;;;;;14.02;6.10;;;;;;;7.64;90.89;100293.06;7387929;19;20010;-66
2022/01/08 06:55:01;;;;;;;6.90;0.88;;;;;;;7.64;90.97;100295.69;7387993;19;20040;-66
2022/01/08 06:57:28;;;;;;;7.35;1.13;;;;;;;7.63;91.02;100294.03;7387645;19;20010;-65
2022/01/08 06:59:55;;;;;;;4.07;0.60;;;;;;;7.65;91.22;100289.47;7387998;19;20538;-65
2022/01/08 07:02:23;;;;;;;9.07;0.73;;;;;;;7.65;91.24;100290.31;7389523;19;20010;-66
2022/01/08 07:04:50;;;;;;;4.60;0.68;;;;;;;7.69;91.57;100270.72;7388020;19;20512;-67
2022/01/08 07:07:18;;;;;;;13.15;3.00;;;;;;;7.74;91.70;100272.88;7387483;19;20538;-68
2022/01/08 07:09:46;;;;;;;12.25;0.88;;;;;;;7.78;91.95;100257.69;7390222;19;20429;-66
2022/01/08 07:12:13;;;;;;;8.57;0.80;;;;;;;7.81;92.08;100255.63;7386136;19;20365;-66
2022/01/08 07:14:41;;;;;;;11.68;3.50;;;;;;;7.84;92.58;100249.25;7387456;19;20015;-68
2022/01/08 07:17:09;;;;;;;10.07;1.25;;;;;;;7.88;92.58;100246.16;7386693;19;20539;-67
2022/01/08 07:19:36;;;;;;;45.00;3.63;;;;;;;7.90;92.87;100238.19;7394460;19;20006;-68
2022/01/08 07:22:04;;;;;;;7.10;1.60;;;;;;;7.92;93.04;100234.44;7396205;19;20025;-66
2022/01/08 07:24:31;;;;;;;4.78;0.80;;;;;;;7.96;93.07;100224.47;7395440;19;20017;-66
2022/01/08 07:26:59;;;;;;;70.30;6.50;;;;;;;7.98;93.24;100212.03;7392742;19;20027;-66
2022/01/08 07:29:26;;;;;;;14.43;1.48;;;;;;;7.99;93.54;100205.84;7396224;19;20015;-66
2022/01/08 07:31:53;;;;;;;8.73;1.40;;;;;;;8.01;93.54;100190.81;7395170;19;20010;-66
2022/01/08 07:34:20;;;;;;;41.03;5.25;;;;;;;8.00;93.90;100192.59;7393854;19;20589;-65
2022/01/08 07:36:48;;;;;;;7.53;0.88;;;;;;;8.02;93.67;100190.66;7396389;19;20003;-68
2022/01/08 07:39:15;;;;;;;6.82;1.10;;;;;;;8.03;93.78;100184.41;7393646;19;20029;-68
2022/01/08 07:41:43;;;;;;;20.00;4.20;;;;;;;8.04;93.74;100178.22;7392631;19;20040;-68
2022/01/08 07:44:10;;;;;;;11.13;1.48;;;;;;;8.08;94.03;100170.84;7392912;19;20046;-65
2022/01/08 07:46:39;;;;;;;4.90;0.80;;;;;;;8.12;94.35;100167.81;7394738;19;20031;-66
2022/01/08 07:49:06;;;;;;;36.20;7.68;;;;;;;8.16;94.44;100170.94;7395326;19;20029;-67
2022/01/08 07:51:34;;;;;;;11.85;1.25;;;;;;;8.22;94.97;100162.47;7391971;19;20014;-67
2022/01/08 07:54:02;;;;;;;14.77;1.75;;;;;;;8.27;95.13;100149.72;7396002;19;20018;-68
2022/01/08 07:56:29;;;;;;;11.57;2.15;;;;;;;8.33;94.83;100149.09;7394639;19;20019;-67
2022/01/08 07:58:56;;;;;;;12.52;1.10;;;;;;;8.40;95.33;100137.03;7390557;19;20363;-67
2022/01/08 08:01:24;;;;;;;13.20;1.58;;;;;;;8.44;95.18;100135.75;7393181;19;20006;-67
2022/01/08 08:03:51;;;;;;;20.63;2.80;;;;;;;8.50;95.44;100126.44;7395771;19;20006;-66
2022/01/08 08:06:19;;;;;;;16.40;1.13;;;;;;;8.56;95.57;100113.53;7390597;19;20011;-66
2022/01/08 08:08:47;;;;;;;17.17;2.28;;;;;;;8.59;95.54;100101.88;7394148;19;20027;-66
2022/01/08 08:11:14;;;;;;;15.30;1.45;;;;;;;8.62;95.31;100095.53;7395345;19;20035;-66
2022/01/08 08:13:42;;;;;;;13.95;1.17;;;;;;;8.61;95.45;100089.44;7392600;19;20564;-67
2022/01/08 08:16:09;;;;;;;21.27;2.88;;;;;;;8.65;95.41;100096.00;7391685;19;20035;-67
2022/01/08 08:18:36;;;;;;;14.13;1.20;;;;;;;8.65;95.55;100080.28;7391178;19;20010;-66
2022/01/08 08:21:04;;;;;;;8.77;1.20;;;;;;;8.69;95.45;100065.88;7395443;19;20018;-65
2022/01/08 08:23:31;;;;;;;14.95;2.00;;;;;;;8.70;95.72;100061.44;7392413;19;20018;-66
2022/01/08 08:25:59;;;;;;;17.88;1.25;;;;;;;8.74;95.76;100052.28;7393614;19;20038;-65
2022/01/08 08:28:27;;;;;;;13.07;1.88;;;;;;;8.77;95.92;100041.47;7394221;19;20011;-65
2022/01/08 08:30:55;;;;;;;119.22;5.65;;;;;;;8.79;95.58;100029.81;7389890;19;20034;-66
2022/01/08 08:33:22;;;;;;;14.70;1.52;;;;;;;8.79;95.96;100026.38;7390838;19;20011;-66
2022/01/08 08:35:50;;;;;;;14.05;1.70;;;;;;;8.82;96.05;100026.91;7390471;19;20391;-66
2022/01/08 08:38:17;;;;;;;17.25;2.85;;;;;;;8.85;96.06;100025.75;7390191;19;20010;-65
2022/01/08 08:40:44;;;;;;;13.48;1.40;;;;;;;8.89;96.17;100008.69;7390284;19;20018;-68
2022/01/08 08:43:15;;;;;;;16.20;1.80;;;;;;;8.92;96.34;100011.00;7391443;19;20018;-66
2022/01/08 08:45:43;;;;;;;12.88;1.35;;;;;;;8.95;96.38;100001.00;7389487;19;20027;-69
2022/01/08 08:48:10;;;;;;;18.58;1.65;;;;;;;8.99;96.88;99994.44;7391599;19;20015;-66
2022/01/08 08:50:37;;;;;;;79.28;10.32;;;;;;;9.04;96.53;99980.03;7392828;19;20017;-67
2022/01/08 08:53:05;;;;;;;13.20;1.50;;;;;;;9.08;96.64;99971.66;7390345;19;20011;-68
2022/01/08 08:55:33;;;;;;;14.05;1.05;;;;;;;9.15;96.90;99974.44;7391381;19;20011;-67
2022/01/08 08:58:00;;;;;;;18.15;2.78;;;;;;;9.18;96.63;99969.69;7394129;19;20019;-66
2022/01/08 09:00:28;;;;;;;13.13;1.63;;;;;;;9.21;96.77;99964.09;7391555;19;20006;-69
2022/01/08 09:02:55;;;;;;;13.93;1.48;;;;;;;9.24;96.85;99962.97;7391951;19;20022;-66
2022/01/08 09:05:23;;;;;;;14.02;1.70;;;;;;;9.26;96.60;99961.81;7393866;19;20015;-65
2022/01/08 09:07:51;;;;;;;14.13;1.38;;;;;;;9.30;96.69;99949.97;7390871;19;20025;-68
2022/01/08 09:10:25;;;;;;;15.63;0.93;;;;;;;9.32;96.66;99947.19;7393702;19;20037;-67
2022/01/08 09:12:54;;;;;;;15.43;2.30;;;;;;;9.34;96.81;99930.31;7391327;19;20049;-67
2022/01/08 09:15:26;;;;;;;19.02;1.50;;;;;;;9.37;96.66;99926.53;7388613;19;20040;-67
2022/01/08 09:18:02;;;;;;;7.95;1.00;;;;;;;9.38;96.82;99918.47;7391871;19;20372;-67
2022/01/08 09:20:30;;;;;;;11.85;1.30;;;;;;;9.42;96.51;99913.72;7392033;19;20002;-67
2022/01/08 09:22:57;;;;;;;8.90;1.00;;;;;;;9.47;96.76;99897.44;7388385;19;20017;-67
2022/01/08 09:25:25;;;;;;;16.88;2.83;;;;;;;9.50;96.74;99894.50;7388158;19;20011;-67
2022/01/08 09:27:53;;;;;;;10.88;1.00;;;;;;;9.55;96.75;99900.84;7389319;19;20038;-68
2022/01/08 09:30:21;;;;;;;12.45;0.85;;;;;;;9.56;96.69;99883.28;7389407;19;20011;-67
2022/01/08 09:32:48;;;;;;;17.58;1.67;;;;;;;9.56;96.75;99876.25;7390293;19;20472;-67
2022/01/08 09:35:17;;;;;;;17.55;2.35;;;;;;;9.58;96.83;99865.56;7391919;19;20019;-67
2022/01/08 09:37:44;;;;;;;109.38;6.50;;;;;;;9.59;97.00;99859.34;7387602;19;20011;-68
2022/01/08 09:40:15;;;;;;;13.00;1.63;;;;;;;9.64;97.06;99851.78;7388806;19;20015;-64
2022/01/08 09:42:44;;;;;;;16.77;1.85;;;;;;;9.66;97.25;99829.59;7387504;19;20034;-66
2022/01/08 09:45:12;;;;;;;22.52;3.50;;;;;;;9.70;97.23;99824.84;7387705;19;20015;-66
2022/01/08 09:47:40;;;;;;;15.13;1.35;;;;;;;9.73;97.16;99816.59;7386950;19;21257;-66
2022/01/08 09:50:08;;;;;;;11.40;1.00;;;;;;;9.75;97.19;99812.78;7390935;19;20017;-66
2022/01/08 09:52:36;;;;;;;18.10;2.75;;;;;;;9.78;97.17;99809.00;7388481;19;20377;-67
2022/01/08 09:55:05;;;;;;;14.35;2.22;;;;;;;9.81;97.43;99796.34;7388885;19;20468;-68
2022/01/08 09:57:32;;;;;;;18.85;1.45;;;;;;;9.84;97.03;99788.13;7386801;19;20013;-64
2022/01/08 10:00:00;;;;;;;17.08;2.35;;;;;;;9.87;97.35;99785.16;7387692;19;20014;-67
2022/01/08 10:02:27;;;;;;;15.88;1.17;;;;;;;9.88;97.06;99773.66;7388846;19;20037;-69
2022/01/08 10:05:08;;;;;;;19.48;1.98;;;;;;;9.95;97.09;99767.69;7387017;19;20040;-67
2022/01/08 10:07:36;;;;;;;16.52;1.38;;;;;;;9.96;97.20;99761.44;7389322;19;20011;-65
2022/01/08 10:10:12;;;;;;;10.15;1.45;;;;;;;10.01;97.35;99753.84;7388931;19;20007;-65
2022/01/08 10:12:44;;;;;;;18.83;2.85;;;;;;;10.05;97.03;99745.44;7388867;19;20034;-68
2022/01/08 10:17:46;;;;;;;16.77;1.10;;;;;;;10.11;97.01;99728.13;7386246;19;20349;-66
2022/01/08 10:20:27;;;;;;;13.88;1.60;;;;;;;10.12;97.35;99721.88;7388782;19;20369;-67
2022/01/08 10:22:59;;;;;;;13.45;1.08;;;;;;;10.15;97.24;99714.50;7390006;19;20015;-68
2022/01/08 10:25:26;;;;;;;9.57;0.90;;;;;;;10.18;97.16;99706.28;7389016;19;20039;-65
2022/01/08 10:27:54;;;;;;;16.48;1.33;;;;;;;10.20;97.55;99687.69;7387256;19;20034;-64
2022/01/08 10:30:26;;;;;;;11.85;0.85;;;;;;;10.23;97.54;99685.53;7385773;19;20482;-66
2022/01/08 10:32:56;;;;;;;41.30;8.25;;;;;;;10.28;97.66;99675.28;7387986;19;20467;-67
2022/01/08 10:35:29;;;;;;;9.98;1.58;;;;;;;10.33;97.52;99658.16;7391285;19;20002;-68
2022/01/08 10:37:57;;;;;;;12.93;1.00;;;;;;;10.35;97.06;99649.09;7387305;19;20011;-67
2022/01/08 10:40:33;;;;;;;23.20;2.75;;;;;;;10.41;97.54;99631.78;7386891;19;20424;-68
2022/01/08 10:43:00;;;;;;;12.15;1.30;;;;;;;10.41;97.67;99631.78;7385882;19;20014;-68
2022/01/08 10:45:33;;;;;;;118.70;8.38;;;;;;;10.43;97.37;99611.38;7389547;19;20011;-66
2022/01/08 10:48:04;;;;;;;10.45;0.88;;;;;;;10.45;97.50;99610.19;7385250;19;20015;-66
2022/01/08 10:50:31;;;;;;;8.23;0.47;;;;;;;10.49;97.30;99594.88;7386962;19;20007;-71
2022/01/08 10:52:59;;;;;;;12.43;1.92;;;;;;;10.50;97.25;99592.06;7387137;19;20011;-67
2022/01/08 10:55:31;;;;;;;7.32;0.63;;;;;;;10.51;97.13;99588.44;7394584;19;20028;-67
2022/01/08 10:57:59;;;;;;;10.98;0.70;;;;;;;10.53;97.43;99583.78;7392447;19;20010;-67
2022/01/08 11:00:30;;;;;;;10.90;1.23;;;;;;;10.54;97.34;99564.41;7396308;19;20456;-67
2022/01/08 11:02:58;;;;;;;5.75;0.45;;;;;;;10.52;97.33;99560.31;7392880;19;20411;-66
2022/01/08 11:05:27;;;;;;;9.10;0.60;;;;;;;10.53;97.48;99546.97;7394363;19;20450;-67
2022/01/08 11:08:13;;;;;;;27.27;6.78;;;;;;;10.57;97.49;99537.72;7395818;19;20011;-66
2022/01/08 11:10:42;;;;;;;7.35;0.60;;;;;;;10.59;97.39;99533.09;7389419;19;21002;-66
2022/01/08 11:13:13;;;;;;;5.55;0.70;;;;;;;10.57;97.37;99519.31;7388914;19;20010;-68
2022/01/08 11:18:17;;;;;;;8.50;0.60;;;;;;;10.59;97.77;99493.66;7387997;19;20003;-67
2022/01/08 11:20:56;;;;;;;4.35;0.40;;;;;;;10.54;97.62;99485.50;7389218;19;20037;-67
2022/01/08 11:23:31;;;;;;;6.40;0.50;;;;;;;10.57;98.03;99471.97;7392181;19;20007;-68
2022/01/08 11:25:59;;;;;;;8.00;0.70;;;;;;;10.56;97.57;99462.47;7388437;19;20012;-66
2022/01/08 11:28:34;;;;;;;17.60;3.28;;;;;;;10.60;98.08;99455.00;7389001;19;20603;-65
2022/01/08 11:31:02;;;;;;;5.95;0.70;;;;;;;10.63;98.26;99444.09;7385381;19;20007;-68
2022/01/08 11:33:35;;;;;;;11.52;1.20;;;;;;;10.65;98.21;99435.03;7387131;19;20017;-66
2022/01/08 11:36:03;;;;;;;8.02;0.90;;;;;;;10.68;98.20;99420.69;7385902;19;20021;-66
2022/01/08 11:38:30;;;;;;;9.02;1.23;;;;;;;10.68;98.12;99412.78;7388564;19;20034;-67
2022/01/08 11:40:59;;;;;;;15.18;4.00;;;;;;;10.66;98.30;99406.94;7387957;19;20010;-67
2022/01/08 11:43:29;;;;;;;4.82;0.90;;;;;;;10.70;98.48;99387.94;7389966;19;20015;-67
2022/01/08 11:46:02;;;;;;;7.43;0.47;;;;;;;10.72;98.44;99379.84;7387414;19;20010;-66
2022/01/08 11:48:51;;;;;;;8.07;0.93;;;;;;;10.74;98.27;99364.69;7367613;19;20010;-66
2022/01/08 11:51:21;;;;;;;7.70;0.63;;;;;;;10.77;98.54;99360.88;7387767;19;20007;-67
2022/01/08 11:53:52;;;;;;;7.25;0.60;;;;;;;10.81;98.37;99352.41;7390252;19;20014;-71
2022/01/08 11:56:25;;;;;;;3.60;0.30;;;;;;;10.84;98.80;99341.50;7388559;19;20081;-66
2022/01/08 11:58:58;;;;;;;5.70;0.40;;;;;;;10.92;98.46;99328.19;7388264;19;20029;-65
2022/01/08 12:01:26;;;;;;;9.10;0.82;;;;;;;10.89;98.41;99327.75;7391061;19;20041;-67
2022/01/08 12:03:55;;;;;;;4.25;0.65;;;;;;;10.93;98.27;99332.44;7387953;19;20046;-68